Terminal Aerodrome Forecast
Issued by NWS

Home | Current Version | Previous Version | Text Only | Print | Product List | Glossary On
Versions: 1 2 3 4 5 6 7 8 9 10 11 12 13 14 15 16 17 18 19 20
007
FTUS42 KKEY 271133
TAFMTH
TAF
KMTH 271133Z 2712/2812 09006KT P6SM VCSH SCT020 SCT040
     FM271500 10008KT P6SM VCSH SCT020
     FM280000 09005KT P6SM SCT020=

USA.gov is the U.S. government's official web portal to all federal, state and local government web resources and services.